| time (UTC) | temp F | wind direction | speed knots | gust knots | rain 1hr in | rain 24hr in | rain mn in | humidity % | barometer mb |
| 20260507064008 | 59 | 68 | 1.7 | 2.6 | 0.00 | 0.22 | 0.00 | 85 | 1013.8 |
| 20260507061007 | 56 | 202 | 0.0 | 0.9 | 0.00 | 0.31 | 0.00 | 91 | 1013.7 |
| 20260507060008 | 56 | 202 | 0.0 | 1.7 | 0.00 | 0.32 | 0.00 | 95 | 1013.3 |
| 20260507055007 | 54 | 202 | 0.0 | 1.7 | 0.00 | 0.51 | 0.00 | 96 | 1013.4 |
| 20260507054007 | 55 | 202 | 0.0 | 0.9 | 0.00 | 0.70 | 0.00 | 97 | 1013.2 |
| 20260507053008 | 54 | 202 | 0.0 | 0.0 | 0.00 | 0.70 | 0.00 | 97 | 1013.0 |
| 20260507052007 | 54 | 202 | 0.0 | 0.0 | 0.00 | 0.73 | 0.00 | 97 | 1013.0 |
| 20260507051008 | 53 | 202 | 0.0 | 0.0 | 0.00 | 0.90 | 0.00 | 97 | 1013.0 |
| 20260507050007 | 53 | 202 | 0.0 | 0.0 | 0.00 | 0.93 | 0.00 | 97 | 1013.0 |
| 20260507045009 | 52 | 202 | 0.0 | 0.0 | 0.00 | 0.96 | 0.00 | 97 | 1012.8 |
| 20260507044008 | 51 | 202 | 0.0 | 0.0 | 0.00 | 0.97 | 0.00 | 97 | 1012.5 |
| 20260507043008 | 51 | 202 | 0.0 | 0.0 | 0.00 | 1.00 | 0.00 | 97 | 1012.9 |
| 20260507042007 | 51 | 202 | 0.0 | 0.0 | 0.00 | 1.12 | 0.00 | 97 | 1012.6 |
| 20260507040007 | 51 | 202 | 0.0 | 0.0 | 0.00 | 1.65 | 0.00 | 97 | 1012.6 |
| 20260507035008 | 51 | 202 | 0.0 | 0.0 | 0.00 | 1.88 | 0.00 | 97 | 1012.6 |
| 20260507034007 | 51 | 202 | 0.0 | 0.0 | 0.00 | 2.07 | 0.00 | 97 | 1012.5 |
| 20260507032008 | 52 | 202 | 0.0 | 0.0 | 0.00 | 2.16 | 0.00 | 97 | 1012.7 |
| 20260507031008 | 52 | 202 | 0.0 | 0.0 | 0.00 | 2.20 | 0.00 | 97 | 1012.7 |
| 20260507030008 | 52 | 202 | 0.0 | 0.0 | 0.00 | 2.26 | 0.00 | 97 | 1012.5 |
| 20260507024007 | 52 | 202 | 0.0 | 0.0 | 0.00 | 2.40 | 0.00 | 97 | 1012.6 |
| 20260507023007 | 52 | 202 | 0.0 | 0.0 | 0.00 | 2.43 | 0.00 | 97 | 1012.6 |
| 20260507022008 | 51 | 202 | 0.0 | 0.0 | 0.00 | 2.46 | 0.00 | 97 | 1012.6 |
| 20260507021008 | 51 | 202 | 0.0 | 0.0 | 0.00 | 2.47 | 0.00 | 97 | 1012.6 |
| 20260507020008 | 52 | 202 | 0.0 | 0.0 | 0.00 | 2.47 | 0.00 | 97 | 1012.8 |
| 20260507015007 | 52 | 202 | 0.0 | 0.9 | 0.00 | 2.47 | 0.00 | 97 | 1012.6 |
| 20260507014008 | 52 | 225 | 0.0 | 0.9 | 0.00 | 2.47 | 0.00 | 97 | 1012.4 |
| 20260507013008 | 51 | 225 | 0.0 | 0.0 | 0.00 | 2.47 | 0.00 | 97 | 1012.7 |
| 20260507012008 | 52 | 225 | 0.0 | 0.0 | 0.00 | 2.47 | 0.00 | 97 | 1012.8 |
| 20260507011007 | 52 | 225 | 0.0 | 0.0 | 0.00 | 2.47 | 0.00 | 97 | 1012.5 |
| 20260507010007 | 52 | 248 | 0.0 | 0.0 | 0.00 | 2.48 | 0.00 | 97 | 1012.6 |
| 20260507004007 | 53 | 248 | 0.0 | 0.0 | 0.00 | 2.50 | 0.00 | 97 | 1012.3 |
| 20260507003009 | 53 | 248 | 0.0 | 0.0 | 0.00 | 2.56 | 0.00 | 97 | 1012.7 |
| 20260507002008 | 53 | 248 | 0.0 | 0.0 | 0.00 | 2.61 | 0.00 | 97 | 1012.5 |
| 20260507001007 | 53 | 248 | 0.0 | 0.0 | 0.00 | 2.68 | 0.00 | 97 | 1012.6 |
| 20260507000008 | 53 | 225 | 0.0 | 0.0 | 0.00 | 2.74 | 0.00 | 97 | 1012.5 |
| 20260506235007 | 54 | 225 | 0.0 | 0.0 | 0.00 | 2.99 | 0.00 | 97 | 1012.4 |
| 20260506234007 | 54 | 248 | 0.0 | 0.0 | 0.00 | 3.20 | 0.00 | 97 | 1012.5 |
| 20260506233008 | 54 | 248 | 0.0 | 0.0 | 0.00 | 3.25 | 0.00 | 97 | 1012.4 |
| 20260506232008 | 54 | 248 | 0.0 | 0.0 | 0.00 | 3.25 | 0.00 | 97 | 1012.7 |
| 20260506231008 | 54 | 248 | 0.0 | 0.0 | 0.00 | 3.26 | 0.00 | 96 | 1012.3 |
| 20260506230007 | 55 | 248 | 0.0 | 0.0 | 0.00 | 3.35 | 0.00 | 96 | 1012.3 |
| 20260506225007 | 55 | 248 | 0.0 | 0.0 | 0.00 | 3.44 | 0.00 | 96 | 1012.1 |
| 20260506224010 | 55 | 248 | 0.0 | 0.0 | 0.00 | 3.44 | 0.00 | 96 | 1012.3 |
| 20260506223008 | 56 | 248 | 0.0 | 0.9 | 0.00 | 3.44 | 0.00 | 96 | 1012.4 |
| 20260506222008 | 56 | 248 | 0.9 | 0.9 | 0.00 | 3.44 | 0.00 | 96 | 1012.3 |
| 20260506221008 | 57 | 248 | 0.0 | 0.0 | 0.00 | 3.44 | 0.00 | 96 | 1012.1 |
| 20260506220007 | 57 | 248 | 0.0 | 0.9 | 0.00 | 3.44 | 0.00 | 96 | 1012.1 |
| 20260506215008 | 57 | 248 | 0.0 | 0.0 | 0.00 | 3.44 | 3.44 | 96 | 1012.0 |
| 20260506214009 | 57 | 248 | 0.0 | 0.9 | 0.00 | 3.44 | 3.44 | 96 | 1012.1 |
| 20260506213007 | 57 | 248 | 0.0 | 0.9 | 0.00 | 3.44 | 3.44 | 96 | 1012.1 |
| 20260506212007 | 57 | 248 | 0.0 | 0.9 | 0.00 | 3.44 | 3.44 | 95 | 1012.1 |
| 20260506211007 | 58 | 248 | 0.0 | 0.9 | 0.00 | 3.44 | 3.44 | 95 | 1011.9 |
| 20260506210008 | 58 | 248 | 0.0 | 1.7 | 0.00 | 3.44 | 3.44 | 95 | 1011.9 |
| 20260506205007 | 58 | 248 | 0.9 | 1.7 | 0.00 | 3.44 | 3.44 | 95 | 1011.6 |
| 20260506204008 | 58 | 248 | 0.9 | 0.9 | 0.00 | 3.44 | 3.44 | 94 | 1011.8 |
| 20260506203007 | 58 | 248 | 0.0 | 0.0 | 0.00 | 3.45 | 3.44 | 94 | 1011.8 |
| 20260506202008 | 59 | 248 | 0.0 | 0.0 | 0.00 | 3.45 | 3.44 | 94 | 1011.9 |
| 20260506201007 | 59 | 248 | 0.0 | 0.0 | 0.00 | 3.45 | 3.44 | 94 | 1011.8 |
| 20260506200008 | 59 | 248 | 0.0 | 0.0 | 0.00 | 3.45 | 3.44 | 93 | 1011.6 |
| 20260506194007 | 59 | 248 | 0.0 | 0.0 | 0.00 | 3.45 | 3.44 | 92 | 1011.4 |
| 20260506193010 | 60 | 248 | 0.0 | 0.0 | 0.00 | 3.45 | 3.44 | 92 | 1011.1 |
| 20260506192008 | 60 | 248 | 0.0 | 0.0 | 0.00 | 3.45 | 3.44 | 91 | 1011.0 |
| 20260506191007 | 60 | 248 | 0.0 | 0.0 | 0.00 | 3.45 | 3.44 | 90 | 1010.8 |
| 20260506190008 | 61 | 248 | 0.0 | 1.7 | 0.00 | 3.45 | 3.44 | 89 | 1010.5 |
| 20260506185007 | 61 | 248 | 0.9 | 2.6 | 0.00 | 3.45 | 3.44 | 88 | 1010.3 |
| 20260506183007 | 62 | 248 | 1.7 | 4.3 | 0.00 | 3.45 | 3.44 | 85 | 1010.2 |
| 20260506182007 | 63 | 248 | 1.7 | 4.3 | 0.00 | 3.45 | 3.44 | 83 | 1010.1 |
| 20260506181008 | 63 | 248 | 2.6 | 4.3 | 0.00 | 3.45 | 3.44 | 82 | 1010.0 |
| 20260506180007 | 63 | 249 | 1.7 | 5.2 | 0.00 | 3.45 | 3.44 | 81 | 1010.1 |
| 20260506175007 | 64 | 248 | 1.7 | 4.3 | 0.00 | 3.45 | 3.44 | 81 | 1010.1 |
| 20260506174007 | 64 | 292 | 2.6 | 5.2 | 0.00 | 3.45 | 3.44 | 81 | 1009.8 |
| 20260506173007 | 64 | 227 | 4.3 | 7.0 | 0.00 | 3.45 | 3.44 | 81 | 1009.8 |
| 20260506172007 | 64 | 225 | 3.5 | 6.1 | 0.00 | 3.45 | 3.44 | 79 | 1009.8 |
| 20260506170008 | 64 | 226 | 2.6 | 7.0 | 0.00 | 3.45 | 3.44 | 80 | 1010.0 |
| 20260506165007 | 64 | 248 | 2.6 | 6.1 | 0.00 | 3.45 | 3.44 | 79 | 1010.0 |
| 20260506164008 | 64 | 248 | 0.9 | 7.0 | 0.00 | 3.45 | 3.44 | 82 | 1010.0 |
| 20260506163007 | 65 | 226 | 0.9 | 6.1 | 0.00 | 3.45 | 3.44 | 81 | 1010.2 |
| 20260506162007 | 64 | 226 | 3.5 | 7.0 | 0.00 | 3.45 | 3.44 | 81 | 1010.1 |
| 20260506161007 | 64 | 249 | 2.6 | 8.7 | 0.00 | 3.45 | 3.44 | 81 | 1010.1 |
| 20260506160007 | 64 | 270 | 2.6 | 7.8 | 0.00 | 3.45 | 3.44 | 81 | 1010.0 |
| 20260506155008 | 64 | 249 | 5.2 | 8.7 | 0.00 | 3.45 | 3.44 | 79 | 1010.0 |
| 20260506154007 | 65 | 249 | 3.5 | 8.7 | 0.00 | 3.45 | 3.44 | 77 | 1010.0 |
| 20260506153008 | 66 | 269 | 4.3 | 10.4 | 0.00 | 3.45 | 3.44 | 76 | 1009.9 |
| 20260506152009 | 65 | 247 | 4.3 | 8.7 | 0.00 | 3.45 | 3.44 | 78 | 1009.9 |
| 20260506151009 | 65 | 225 | 4.3 | 10.4 | 0.00 | 3.45 | 3.44 | 76 | 1010.0 |
| 20260506150008 | 65 | 204 | 6.1 | 13.0 | 0.00 | 3.45 | 3.44 | 76 | 1009.8 |
| 20260506145007 | 66 | 225 | 6.1 | 13.0 | 0.00 | 3.45 | 3.44 | 73 | 1009.9 |
| 20260506144008 | 66 | 268 | 7.8 | 12.2 | 0.00 | 3.45 | 3.44 | 74 | 1009.9 |
| 20260506143007 | 68 | 290 | 6.1 | 12.2 | 0.00 | 3.45 | 3.44 | 72 | 1009.8 |
| 20260506142007 | 68 | 267 | 6.1 | 13.0 | 0.00 | 3.45 | 3.44 | 74 | 1009.8 |
| 20260506141008 | 66 | 270 | 6.1 | 14.8 | 0.00 | 3.45 | 3.44 | 78 | 1009.9 |
| 20260506140010 | 66 | 270 | 7.0 | 13.9 | 0.00 | 3.45 | 3.44 | 81 | 1009.7 |
| 20260506135007 | 66 | 289 | 4.3 | 14.8 | 0.00 | 3.45 | 3.44 | 83 | 1009.8 |
| 20260506134007 | 66 | 249 | 7.8 | 14.8 | 0.00 | 3.45 | 3.44 | 83 | 1010.1 |
| 20260506133008 | 66 | 225 | 5.2 | 13.9 | 0.00 | 3.45 | 3.44 | 83 | 1010.3 |
| 20260506131008 | 67 | 248 | 7.8 | 13.0 | 0.00 | 3.45 | 3.44 | 81 | 1010.1 |
| 20260506130007 | 66 | 248 | 7.0 | 13.0 | 0.00 | 3.45 | 3.44 | 83 | 1010.1 |
| 20260506125011 | 67 | 227 | 6.1 | 14.8 | 0.00 | 3.45 | 3.44 | 82 | 1010.1 |
| 20260506124007 | 66 | 268 | 6.1 | 17.4 | 0.00 | 3.45 | 3.44 | 81 | 1010.1 |
| 20260506123007 | 66 | 268 | 7.8 | 13.9 | 0.20 | 3.45 | 3.44 | 82 | 1010.2 |
| 20260506122007 | 67 | 248 | 4.3 | 11.3 | 0.20 | 3.45 | 3.44 | 87 | 1010.0 |
| 20260506121007 | 65 | 248 | 2.6 | 12.2 | 0.20 | 3.45 | 3.44 | 89 | 1009.9 |
| 20260506120007 | 63 | 248 | 6.1 | 13.0 | 0.21 | 3.45 | 3.44 | 96 | 1009.9 |
| 20260506115007 | 63 | 291 | 7.0 | 13.9 | 0.21 | 3.45 | 3.44 | 96 | 1009.6 |
| 20260506114008 | 63 | 227 | 7.8 | 17.4 | 0.21 | 3.45 | 3.44 | 94 | 1009.9 |
| 20260506113007 | 66 | 203 | 4.3 | 13.0 | 0.01 | 3.25 | 3.24 | 87 | 1009.9 |
| 20260506111008 | 66 | 201 | 5.2 | 14.8 | 0.01 | 3.25 | 3.24 | 88 | 1009.7 |
| 20260506110009 | 68 | 201 | 4.3 | 13.0 | 0.00 | 3.24 | 3.22 | 82 | 1009.6 |
| 20260506105007 | 69 | 203 | 6.1 | 15.6 | 0.00 | 3.24 | 3.22 | 79 | 1009.6 |
| 20260506103007 | 67 | 95 | 4.3 | 8.7 | 0.00 | 3.25 | 3.22 | 83 | 1009.7 |
| 20260506102008 | 67 | 225 | 4.3 | 10.4 | 0.00 | 3.26 | 3.22 | 83 | 1009.6 |
| 20260506095008 | 67 | 177 | 1.7 | 6.1 | 0.00 | 3.27 | 3.22 | 82 | 1009.7 |
| 20260506094007 | 67 | 224 | 1.7 | 15.6 | 0.00 | 3.30 | 3.22 | 83 | 1009.6 |
| 20260506093007 | 67 | 201 | 4.3 | 13.0 | 0.00 | 3.56 | 3.22 | 81 | 1009.7 |
| 20260506091007 | 67 | 225 | 3.5 | 13.0 | 0.00 | 3.91 | 3.22 | 82 | 1009.4 |
| 20260506090007 | 67 | 183 | 5.2 | 14.8 | 0.00 | 3.92 | 3.22 | 84 | 1009.4 |
| 20260506085007 | 67 | 204 | 6.1 | 13.9 | 0.00 | 3.92 | 3.22 | 82 | 1009.2 |
| 20260506084008 | 68 | 185 | 4.3 | 13.9 | 0.00 | 3.93 | 3.22 | 84 | 1009.4 |
| 20260506083007 | 65 | 183 | 5.2 | 13.9 | 0.00 | 3.97 | 3.22 | 86 | 1009.5 |
| 20260506082007 | 64 | 201 | 5.2 | 13.9 | 0.00 | 4.00 | 3.22 | 87 | 1009.5 |
| 20260506081007 | 62 | 179 | 7.8 | 15.6 | 0.00 | 4.02 | 3.22 | 92 | 1009.4 |
| 20260506073007 | 59 | 95 | 4.3 | 10.4 | 0.04 | 4.04 | 3.22 | 98 | 1009.5 |
| 20260506072007 | 59 | 182 | 4.3 | 11.3 | 0.06 | 4.09 | 3.22 | 98 | 1009.6 |
| 20260506071007 | 60 | 225 | 0.9 | 8.7 | 0.09 | 4.20 | 3.22 | 98 | 1009.7 |